Time;durP1;ratioP1;P1;durP2;ratioP2;P2;SDS_P1;SDS_P2;PMS_P1;PMS_P2;Temp;Humidity;BMP_temperature;BMP_pressure;BME280_temperature;BME280_humidity;BME280_pressure;Samples;Min_cycle;Max_cycle;Signal;HPM_P1;HPM_P2
2022/04/09 00:02:19;;;;;;;4.62;0.40;;;;;;;11.25;100.00;97066.50;4379720;32;20166;-71
2022/04/09 00:04:48;;;;;;;1.27;0.30;;;;;;;11.04;100.00;97065.44;4379442;32;20474;-72
2022/04/09 00:07:15;;;;;;;2.67;0.60;;;;;;;11.08;100.00;97058.03;4379254;32;20078;-72
2022/04/09 00:09:42;;;;;;;0.30;0.30;;;;;;;11.02;100.00;97051.69;4379549;32;20098;-72
2022/04/09 00:12:10;;;;;;;1.12;0.40;;;;;;;11.07;100.00;97048.56;4379327;32;20119;-72
2022/04/09 00:14:37;;;;;;;0.68;0.30;;;;;;;11.03;100.00;97049.91;4379415;32;20121;-72
2022/04/09 00:17:04;;;;;;;0.75;0.47;;;;;;;10.95;100.00;97038.53;4379407;32;20087;-71
2022/04/09 00:19:31;;;;;;;0.82;0.40;;;;;;;11.13;100.00;97032.09;4379518;32;20122;-72
2022/04/09 00:21:59;;;;;;;0.30;0.30;;;;;;;11.16;99.86;97032.53;4379340;32;20121;-71
2022/04/09 00:24:26;;;;;;;1.27;0.60;;;;;;;11.18;100.00;97022.66;4379409;32;20113;-71
2022/04/09 00:26:53;;;;;;;1.30;0.50;;;;;;;11.10;100.00;97019.34;4379194;32;20101;-72
2022/04/09 00:29:20;;;;;;;0.88;0.45;;;;;;;11.05;100.00;97032.19;4379148;32;20102;-72
2022/04/09 00:31:48;;;;;;;0.40;0.40;;;;;;;11.10;100.00;97025.41;4379366;32;20102;-71
2022/04/09 00:34:16;;;;;;;1.50;0.60;;;;;;;11.46;97.62;97016.72;4379219;32;20154;-71
2022/04/09 00:36:43;;;;;;;0.50;0.50;;;;;;;11.35;98.35;97017.19;4379509;32;20531;-72
2022/04/09 00:39:10;;;;;;;0.85;0.60;;;;;;;11.30;98.23;97004.66;4379077;32;20102;-72
2022/04/09 00:41:47;;;;;;;1.48;0.50;;;;;;;11.35;97.89;97004.09;4379241;32;20103;-72
2022/04/09 00:44:18;;;;;;;0.70;0.65;;;;;;;11.30;98.10;97011.72;4379211;32;20136;-71
2022/04/09 00:46:45;;;;;;;2.17;0.50;;;;;;;11.21;98.99;97016.25;4379185;32;20082;-72
2022/04/09 00:49:14;;;;;;;1.62;1.25;;;;;;;11.23;99.28;97010.81;4379212;32;20117;-72
2022/04/09 00:51:42;;;;;;;1.02;0.50;;;;;;;11.31;98.56;97016.78;4379004;32;20117;-72
2022/04/09 00:54:13;;;;;;;1.25;0.47;;;;;;;11.21;100.00;97031.16;4379110;32;20106;-72
2022/04/09 00:56:41;;;;;;;0.80;0.40;;;;;;;11.10;100.00;97043.75;4365540;32;20444;-72
2022/04/09 00:59:11;;;;;;;1.33;0.75;;;;;;;11.06;100.00;97052.97;4378974;32;20098;-72
2022/04/09 01:01:39;;;;;;;2.33;0.90;;;;;;;11.23;100.00;97058.81;4378351;32;20817;-72
2022/04/09 01:04:11;;;;;;;3.70;0.70;;;;;;;11.49;97.08;97066.19;4378775;32;20129;-72
2022/04/09 01:06:38;;;;;;;5.25;0.93;;;;;;;11.26;99.12;97068.91;4378874;32;20097;-72
2022/04/09 01:09:07;;;;;;;2.15;0.65;;;;;;;11.10;100.00;97062.09;4378821;32;20101;-72
2022/04/09 01:11:34;;;;;;;2.35;0.50;;;;;;;11.30;99.00;97058.91;4378892;32;20476;-72
2022/04/09 01:14:02;;;;;;;1.45;0.90;;;;;;;11.52;97.19;97036.13;4379207;32;20156;-72
2022/04/09 01:16:29;;;;;;;2.10;0.75;;;;;;;11.56;97.14;97026.09;4378977;32;20109;-72
2022/04/09 01:19:00;;;;;;;2.28;0.85;;;;;;;11.34;99.58;97016.41;4379071;32;20124;-72
2022/04/09 01:21:29;;;;;;;1.52;0.90;;;;;;;11.26;100.00;97015.69;4379109;32;20087;-72
2022/04/09 01:23:56;;;;;;;3.95;0.88;;;;;;;11.74;98.26;97036.97;4378968;32;20113;-72
2022/04/09 01:26:24;;;;;;;4.68;0.95;;;;;;;11.57;98.59;97033.78;4378761;32;20121;-72
2022/04/09 01:28:51;;;;;;;3.37;0.98;;;;;;;11.60;99.12;97040.47;4378707;32;20126;-72
2022/04/09 01:31:19;;;;;;;2.25;0.77;;;;;;;11.48;99.99;97042.78;4378653;32;20117;-72
2022/04/09 01:33:47;;;;;;;2.08;0.65;;;;;;;11.36;100.00;97043.22;4378883;32;20112;-72
2022/04/09 01:36:14;;;;;;;2.40;0.90;;;;;;;11.35;100.00;97056.53;4378776;32;20209;-72
2022/04/09 01:38:42;;;;;;;4.28;0.80;;;;;;;11.33;100.00;97058.53;4378654;32;20094;-72
2022/04/09 01:41:09;;;;;;;3.20;0.90;;;;;;;11.27;100.00;97060.06;4378587;32;20107;-72
2022/04/09 01:43:38;;;;;;;1.25;0.80;;;;;;;11.32;100.00;97057.69;4378727;32;20123;-72
2022/04/09 01:46:05;;;;;;;2.58;0.77;;;;;;;11.13;100.00;97059.09;4378467;32;20087;-72
2022/04/09 01:48:32;;;;;;;2.50;0.93;;;;;;;11.10;100.00;97064.72;4378096;32;20091;-72
2022/04/09 01:51:01;;;;;;;2.10;1.10;;;;;;;11.01;100.00;97053.50;4378656;32;20090;-72
2022/04/09 01:53:28;;;;;;;2.80;1.00;;;;;;;11.26;100.00;97057.63;4378291;32;20091;-72
2022/04/09 01:55:56;;;;;;;2.47;0.88;;;;;;;11.14;100.00;97050.25;4378399;32;20145;-72
2022/04/09 01:58:24;;;;;;;1.65;0.60;;;;;;;11.28;100.00;97071.34;4365208;32;20129;-72
2022/04/09 02:00:58;;;;;;;0.98;0.60;;;;;;;11.29;100.00;97083.47;4378430;32;20090;-72
2022/04/09 02:03:30;;;;;;;3.95;0.80;;;;;;;11.27;100.00;97085.47;4378232;32;20445;-72
2022/04/09 02:05:57;;;;;;;3.25;0.77;;;;;;;11.63;100.00;97069.75;4378282;32;20095;-72
2022/04/09 02:08:25;;;;;;;2.20;0.90;;;;;;;11.42;100.00;97062.66;4378273;32;20122;-72
2022/04/09 02:10:54;;;;;;;1.40;0.60;;;;;;;11.28;100.00;97066.13;4377967;32;20123;-72
2022/04/09 02:13:21;;;;;;;0.90;0.80;;;;;;;11.23;100.00;97058.00;4378647;32;20177;-72
2022/04/09 02:15:48;;;;;;;1.05;0.93;;;;;;;11.20;100.00;97064.41;4380465;32;20122;-72
2022/04/09 02:18:26;;;;;;;2.60;0.95;;;;;;;11.47;100.00;97073.41;4380053;32;20142;-72
2022/04/09 02:20:55;;;;;;;1.15;0.80;;;;;;;11.13;100.00;97043.37;4380173;32;20128;-72
2022/04/09 02:23:22;;;;;;;1.23;0.82;;;;;;;10.99;100.00;97036.34;4380380;32;20153;-72
2022/04/09 02:25:49;;;;;;;1.65;0.90;;;;;;;11.08;100.00;97024.78;4379904;32;20485;-72
2022/04/09 02:28:16;;;;;;;2.28;0.95;;;;;;;10.82;100.00;97031.31;4379943;32;20116;-71
2022/04/09 02:30:44;;;;;;;4.22;1.10;;;;;;;10.82;100.00;97036.56;4380398;32;20548;-72
2022/04/09 02:33:12;;;;;;;1.62;1.00;;;;;;;10.96;100.00;97047.19;4380344;32;20114;-71
2022/04/09 02:35:39;;;;;;;4.47;1.05;;;;;;;11.16;100.00;97048.25;4366594;32;20086;-72
2022/04/09 02:38:09;;;;;;;3.28;0.90;;;;;;;11.07;100.00;97057.22;4380162;32;20125;-72
2022/04/09 02:40:37;;;;;;;1.33;0.88;;;;;;;10.93;100.00;97058.84;4380244;32;20129;-72
2022/04/09 02:43:06;;;;;;;3.08;1.48;;;;;;;10.87;100.00;97064.00;4379881;32;20197;-72
2022/04/09 02:45:34;;;;;;;2.37;1.30;;;;;;;10.73;100.00;97068.25;4379937;32;20579;-71
2022/04/09 02:48:02;;;;;;;3.87;1.40;;;;;;;11.00;100.00;97077.28;4379842;32;20217;-72
2022/04/09 02:50:29;;;;;;;2.95;1.10;;;;;;;10.96;100.00;97073.38;4380095;32;20809;-72
2022/04/09 02:52:57;;;;;;;2.45;1.33;;;;;;;11.22;100.00;97072.94;4379934;32;20478;-72
2022/04/09 02:55:24;;;;;;;2.05;1.17;;;;;;;11.17;100.00;97065.63;4379835;32;20112;-71
2022/04/09 02:57:51;;;;;;;4.32;1.17;;;;;;;10.89;100.00;97054.97;4380025;32;20464;-72
2022/04/09 03:00:20;;;;;;;1.05;0.90;;;;;;;10.87;100.00;97064.00;4366428;32;20114;-71
2022/04/09 03:02:47;;;;;;;2.25;1.25;;;;;;;11.12;100.00;97078.44;4379908;32;20099;-72
2022/04/09 03:05:15;;;;;;;0.70;0.55;;;;;;;11.09;100.00;97068.31;4379833;32;20603;-71
2022/04/09 03:07:42;;;;;;;1.52;0.90;;;;;;;10.86;100.00;97063.19;4379712;32;20175;-71
2022/04/09 03:10:09;;;;;;;3.58;1.00;;;;;;;10.77;100.00;97070.31;4379583;32;20118;-72
2022/04/09 03:12:44;;;;;;;1.27;0.70;;;;;;;10.88;100.00;97055.94;4379810;32;20374;-72
2022/04/09 03:15:14;;;;;;;1.42;0.80;;;;;;;10.52;100.00;97045.38;4379649;32;20105;-72
2022/04/09 03:17:41;;;;;;;1.90;0.95;;;;;;;10.40;100.00;97056.31;4379930;32;20149;-71
2022/04/09 03:20:10;;;;;;;1.27;0.80;;;;;;;10.37;100.00;97076.75;4379700;32;20098;-72
2022/04/09 03:22:44;;;;;;;1.27;0.80;;;;;;;10.62;100.00;97086.00;4379890;32;20133;-72
2022/04/09 03:25:12;;;;;;;0.98;0.75;;;;;;;10.58;100.00;97076.09;4379319;32;20078;-72
2022/04/09 03:27:40;;;;;;;0.85;0.68;;;;;;;10.43;100.00;97071.66;4379829;32;20103;-72
2022/04/09 03:30:09;;;;;;;1.52;1.42;;;;;;;10.33;100.00;97078.94;4379551;32;20122;-72
2022/04/09 03:32:37;;;;;;;1.85;0.62;;;;;;;10.46;100.00;97060.81;4379906;32;20122;-72
2022/04/09 03:35:06;;;;;;;1.42;0.50;;;;;;;10.42;100.00;97056.94;4379874;32;20525;-71
2022/04/09 03:37:35;;;;;;;0.93;0.40;;;;;;;10.29;100.00;97041.81;4379606;32;20137;-72
2022/04/09 03:40:04;;;;;;;0.95;0.40;;;;;;;10.27;100.00;97045.59;4366284;32;20157;-72
2022/04/09 03:42:33;;;;;;;0.80;0.25;;;;;;;10.41;100.00;97057.09;4379898;32;20122;-72
2022/04/09 03:45:00;;;;;;;1.20;0.40;;;;;;;10.36;100.00;97065.50;4379584;32;20099;-72
2022/04/09 03:47:27;;;;;;;2.92;0.52;;;;;;;10.12;100.00;97059.44;4379223;32;20469;-71
2022/04/09 03:49:54;;;;;;;0.98;0.45;;;;;;;9.94;100.00;97045.84;4379465;32;20102;-71
2022/04/09 03:52:22;;;;;;;0.68;0.30;;;;;;;9.70;100.00;97042.44;4379747;32;20141;-71
2022/04/09 03:54:49;;;;;;;0.68;0.40;;;;;;;9.62;100.00;97050.34;4379498;32;20094;-71
2022/04/09 03:57:16;;;;;;;0.88;0.37;;;;;;;9.64;100.00;97048.34;4379558;32;20122;-71
2022/04/09 03:59:44;;;;;;;1.05;0.30;;;;;;;9.65;100.00;97055.22;4379687;32;20129;-71
2022/04/09 04:02:11;;;;;;;0.90;0.30;;;;;;;9.74;100.00;97048.12;4379473;32;20107;-71
2022/04/09 04:04:39;;;;;;;0.43;0.22;;;;;;;9.56;100.00;97040.56;4379668;32;20090;-71
2022/04/09 04:07:06;;;;;;;1.17;0.45;;;;;;;9.50;100.00;97038.66;4379646;32;20269;-71
2022/04/09 04:09:37;;;;;;;2.58;0.40;;;;;;;9.43;100.00;97037.72;4379640;32;20453;-71
2022/04/09 04:12:04;;;;;;;2.08;0.40;;;;;;;9.30;100.00;97026.03;4379523;32;20451;-71
2022/04/09 04:14:32;;;;;;;0.73;0.30;;;;;;;9.41;100.00;97030.03;4379615;32;20090;-71
2022/04/09 04:16:59;;;;;;;0.47;0.30;;;;;;;9.53;100.00;97025.25;4379598;32;20098;-72
2022/04/09 04:19:28;;;;;;;5.18;0.40;;;;;;;9.54;100.00;97016.41;4379542;32;20126;-72
2022/04/09 04:21:56;;;;;;;0.25;0.20;;;;;;;9.59;100.00;97011.47;4379317;32;20079;-71
2022/04/09 04:24:25;;;;;;;0.10;0.10;;;;;;;9.47;100.00;97008.44;4379131;32;20116;-72
2022/04/09 04:26:54;;;;;;;0.30;0.30;;;;;;;9.47;100.00;97005.81;4378056;32;20095;-72
2022/04/09 04:29:21;;;;;;;1.08;0.30;;;;;;;9.71;100.00;97004.84;4379174;32;20087;-72
2022/04/09 04:31:48;;;;;;;2.60;0.50;;;;;;;9.70;100.00;97003.22;4379626;32;20122;-72
2022/04/09 04:34:17;;;;;;;2.03;0.60;;;;;;;9.74;100.00;97003.69;4379430;32;20086;-72
2022/04/09 04:36:44;;;;;;;1.27;0.30;;;;;;;9.68;100.00;97002.56;4378408;32;20125;-72
2022/04/09 04:39:12;;;;;;;0.62;0.25;;;;;;;9.69;100.00;96996.38;4379016;32;20117;-72
2022/04/09 04:41:40;;;;;;;0.50;0.35;;;;;;;9.84;100.00;96985.13;4379265;32;20527;-72
2022/04/09 04:44:10;;;;;;;2.60;0.30;;;;;;;10.13;100.00;96971.31;4379372;32;20083;-71
2022/04/09 04:46:39;;;;;;;1.65;0.80;;;;;;;10.60;100.00;96959.69;4379412;32;20098;-71
2022/04/09 04:49:06;;;;;;;2.10;1.00;;;;;;;10.84;100.00;96963.03;4379080;32;20433;-71
2022/04/09 04:51:34;;;;;;;1.87;1.00;;;;;;;10.78;100.00;96963.72;4379232;32;20095;-71
2022/04/09 04:54:03;;;;;;;2.28;0.65;;;;;;;10.57;100.00;96946.97;4378960;32;20091;-71
2022/04/09 04:56:31;;;;;;;1.05;0.68;;;;;;;10.71;100.00;96937.47;4379300;32;20099;-71
2022/04/09 04:58:59;;;;;;;4.25;1.15;;;;;;;10.32;100.00;96933.31;4379104;32;20580;-71
2022/04/09 05:01:26;;;;;;;4.85;1.10;;;;;;;10.03;100.00;96926.28;4378993;32;20137;-71
2022/04/09 05:03:55;;;;;;;2.87;1.37;;;;;;;10.21;100.00;96920.69;4379113;32;20149;-71
2022/04/09 05:06:22;;;;;;;3.30;1.50;;;;;;;10.26;100.00;96926.19;4379112;32;20512;-71
2022/04/09 05:08:51;;;;;;;3.65;1.00;;;;;;;9.94;100.00;96930.78;4378779;32;20098;-71
2022/04/09 05:11:21;;;;;;;1.45;0.77;;;;;;;9.82;100.00;96919.13;4378944;32;20110;-71
2022/04/09 05:13:48;;;;;;;2.03;1.25;;;;;;;9.75;100.00;96919.03;4379009;32;20433;-71
2022/04/09 05:16:16;;;;;;;1.10;0.90;;;;;;;9.72;100.00;96925.41;4379125;32;20106;-71
2022/04/09 05:18:45;;;;;;;1.52;0.98;;;;;;;9.65;100.00;96919.25;4379019;32;20169;-71
2022/04/09 05:21:13;;;;;;;2.05;0.88;;;;;;;9.45;100.00;96924.19;4379064;32;20152;-71
2022/04/09 05:23:41;;;;;;;2.78;1.15;;;;;;;9.48;100.00;96933.44;4378943;32;20098;-70
2022/04/09 05:26:09;;;;;;;1.58;0.82;;;;;;;9.62;100.00;96926.66;4378940;32;20098;-71
2022/04/09 05:28:37;;;;;;;1.52;0.70;;;;;;;9.51;100.00;96947.00;4378926;32;20156;-71
2022/04/09 05:31:05;;;;;;;2.53;0.68;;;;;;;9.40;100.00;96935.16;4378901;32;20079;-71
2022/04/09 05:33:33;;;;;;;1.50;0.70;;;;;;;9.30;100.00;96915.47;4378762;32;20125;-71
2022/04/09 05:36:02;;;;;;;1.42;0.88;;;;;;;9.24;100.00;96923.00;4378979;32;20062;-71
2022/04/09 05:38:30;;;;;;;1.83;0.90;;;;;;;9.27;100.00;96934.91;4378669;32;20117;-71
2022/04/09 05:40:58;;;;;;;4.87;2.50;;;;;;;9.33;100.00;96931.59;4378821;32;20083;-71
2022/04/09 05:43:25;;;;;;;7.12;2.80;;;;;;;9.14;100.00;96942.50;4378413;32;20157;-71
2022/04/09 05:45:53;;;;;;;3.60;2.00;;;;;;;9.17;100.00;96935.13;4378412;32;20087;-71
2022/04/09 05:48:21;;;;;;;4.40;1.75;;;;;;;9.24;100.00;96956.97;4378748;32;20099;-71
2022/04/09 05:50:48;;;;;;;1.40;1.10;;;;;;;9.51;100.00;96952.22;4380267;32;20132;-71
2022/04/09 05:53:16;;;;;;;2.37;1.10;;;;;;;9.44;100.00;96964.34;4380238;32;20091;-71
2022/04/09 05:55:43;;;;;;;2.80;1.10;;;;;;;9.45;100.00;96971.22;4380613;32;20098;-71
2022/04/09 05:58:11;;;;;;;1.20;0.80;;;;;;;9.63;100.00;96970.09;4380273;32;20453;-71
2022/04/09 06:00:39;;;;;;;5.32;1.10;;;;;;;9.97;100.00;96953.94;4380290;32;20091;-71
2022/04/09 06:03:07;;;;;;;2.50;0.93;;;;;;;9.85;100.00;96952.75;4380437;32;20082;-71
2022/04/09 06:05:35;;;;;;;6.30;1.50;;;;;;;9.75;100.00;96959.06;4380525;32;20408;-71
2022/04/09 06:08:07;;;;;;;1.20;0.88;;;;;;;9.13;100.00;96964.38;4380583;32;20119;-71
2022/04/09 06:10:35;;;;;;;3.22;0.77;;;;;;;9.13;100.00;96972.22;4380338;32;20125;-71
2022/04/09 06:13:02;;;;;;;3.92;0.73;;;;;;;9.47;100.00;96973.66;4380127;32;20393;-71
2022/04/09 06:15:30;;;;;;;1.87;0.80;;;;;;;9.69;100.00;96975.44;4380361;32;20715;-71
2022/04/09 06:18:06;;;;;;;1.25;0.82;;;;;;;9.40;100.00;96974.34;4380360;32;20095;-71
2022/04/09 06:20:34;;;;;;;1.85;0.57;;;;;;;9.58;100.00;96973.25;4380456;32;20078;-71
2022/04/09 06:23:04;;;;;;;1.70;0.75;;;;;;;9.38;100.00;96959.81;4380220;32;20086;-71
2022/04/09 06:25:32;;;;;;;1.75;0.93;;;;;;;9.48;100.00;96962.19;4379981;32;20158;-71
2022/04/09 06:27:59;;;;;;;3.28;0.80;;;;;;;9.36;100.00;96956.59;4380335;32;20445;-71
2022/04/09 06:30:27;;;;;;;1.80;0.70;;;;;;;9.60;100.00;96945.13;4380011;32;20087;-71
2022/04/09 06:32:55;;;;;;;1.75;0.60;;;;;;;9.81;100.00;96954.94;4380315;32;20082;-71
2022/04/09 06:35:24;;;;;;;1.10;0.70;;;;;;;9.61;100.00;96948.56;4380288;32;20106;-71
2022/04/09 06:37:52;;;;;;;3.28;0.90;;;;;;;9.56;100.00;96962.94;4380292;32;20370;-71
2022/04/09 06:40:20;;;;;;;1.40;0.52;;;;;;;9.61;100.00;96972.88;4380117;32;20095;-71
2022/04/09 06:42:47;;;;;;;2.00;0.70;;;;;;;9.73;100.00;96968.84;4380122;32;20082;-71
2022/04/09 06:45:17;;;;;;;1.75;0.50;;;;;;;10.12;100.00;96973.09;4379870;32;20154;-71
2022/04/09 06:47:47;;;;;;;1.10;0.65;;;;;;;10.04;100.00;96975.81;4380165;32;20156;-71
2022/04/09 06:50:15;;;;;;;3.80;0.52;;;;;;;10.03;100.00;96974.16;4379980;32;20149;-71
2022/04/09 06:52:43;;;;;;;0.43;0.30;;;;;;;10.00;100.00;96969.28;4380035;32;20146;-71
2022/04/09 06:55:11;;;;;;;1.85;0.50;;;;;;;10.13;100.00;96990.44;4380023;32;20161;-71
2022/04/09 06:57:41;;;;;;;0.98;0.60;;;;;;;10.37;100.00;96999.06;4380152;32;20102;-71
2022/04/09 07:00:12;;;;;;;1.70;0.62;;;;;;;10.54;100.00;96999.72;4379294;32;20090;-71
2022/04/09 07:02:40;;;;;;;1.67;0.90;;;;;;;10.67;100.00;96983.34;4379989;32;20086;-71
2022/04/09 07:05:08;;;;;;;3.08;2.10;;;;;;;10.74;100.00;96992.09;4366270;32;20133;-71
2022/04/09 07:07:35;;;;;;;2.42;1.65;;;;;;;11.10;100.00;96995.78;4379835;32;20441;-71
2022/04/09 07:10:09;;;;;;;1.90;1.50;;;;;;;11.23;100.00;96995.09;4379629;32;20181;-71
2022/04/09 07:12:37;;;;;;;1.95;1.10;;;;;;;10.91;100.00;97013.66;4379831;32;20070;-71
2022/04/09 07:15:06;;;;;;;0.90;0.68;;;;;;;10.69;100.00;97004.94;4379845;32;20668;-71
2022/04/09 07:17:33;;;;;;;0.40;0.40;;;;;;;10.77;100.00;97196.03;4379698;32;20113;-71
2022/04/09 07:20:04;;;;;;;1.05;0.40;;;;;;;9.93;100.00;97215.09;4379576;32;20109;-71
2022/04/09 07:22:37;;;;;;;10.13;0.90;;;;;;;9.53;100.00;97203.81;4379654;32;20075;-72
2022/04/09 07:25:05;;;;;;;1.20;0.10;;;;;;;8.66;100.00;97211.47;4379692;32;20109;-72
2022/04/09 07:27:42;;;;;;;1.08;0.10;;;;;;;8.52;100.00;97216.38;4379774;32;20118;-72
2022/04/09 07:30:11;;;;;;;1.30;0.10;;;;;;;8.70;100.00;97200.56;4379630;32;20079;-72
2022/04/09 07:32:40;;;;;;;0.35;0.20;;;;;;;8.64;100.00;97198.59;4379613;32;20476;-73
2022/04/09 07:35:07;;;;;;;2.47;0.25;;;;;;;8.73;100.00;97198.59;4379563;32;20098;-74
2022/04/09 07:37:42;;;;;;;0.10;0.10;;;;;;;8.70;100.00;97190.13;4379688;32;20098;-73
2022/04/09 07:40:11;;;;;;;1.17;0.35;;;;;;;8.79;100.00;97192.72;4379925;32;20161;-73
2022/04/09 07:42:40;;;;;;;0.88;0.37;;;;;;;8.67;100.00;97176.56;4379869;32;20145;-73
2022/04/09 07:45:08;;;;;;;1.40;0.20;;;;;;;8.81;100.00;97190.75;4379572;32;20153;-73
2022/04/09 07:47:35;;;;;;;0.90;0.40;;;;;;;8.83;100.00;97175.75;4379335;32;20208;-73
2022/04/09 07:50:06;;;;;;;0.10;0.10;;;;;;;8.99;100.00;97178.34;4379496;32;20167;-73
2022/04/09 07:52:33;;;;;;;1.67;0.40;;;;;;;9.16;100.00;97173.03;4379415;32;20067;-74
2022/04/09 07:55:00;;;;;;;0.47;0.30;;;;;;;9.23;100.00;97167.00;4379479;32;20124;-74
2022/04/09 07:57:27;;;;;;;1.52;0.37;;;;;;;9.50;100.00;97156.28;4379529;32;20179;-74
2022/04/09 07:59:58;;;;;;;1.83;0.30;;;;;;;9.70;100.00;97172.38;4379465;32;20107;-74
2022/04/09 08:02:25;;;;;;;2.08;0.32;;;;;;;9.96;100.00;97164.22;4379422;32;20434;-74
2022/04/09 08:04:53;;;;;;;1.37;0.40;;;;;;;10.03;100.00;97167.75;4379362;32;20129;-74
2022/04/09 08:07:20;;;;;;;1.48;0.65;;;;;;;10.11;100.00;97169.50;4379365;32;20098;-74
2022/04/09 08:09:47;;;;;;;1.48;0.60;;;;;;;10.11;100.00;97162.50;4379362;32;20468;-75
2022/04/09 08:12:15;;;;;;;1.20;0.70;;;;;;;10.51;100.00;97162.41;4379026;32;20087;-74
2022/04/09 08:14:42;;;;;;;1.95;0.62;;;;;;;10.72;100.00;97166.97;4379374;32;20099;-74
2022/04/09 08:17:10;;;;;;;0.75;0.55;;;;;;;10.81;100.00;97168.50;4379117;32;20098;-74
2022/04/09 08:19:37;;;;;;;0.55;0.47;;;;;;;10.69;100.00;97169.09;4379163;32;20406;-74
2022/04/09 08:22:05;;;;;;;3.30;0.60;;;;;;;10.97;100.00;97179.81;4379408;32;20086;-74
2022/04/09 08:24:32;;;;;;;1.02;0.50;;;;;;;11.24;100.00;97185.47;4379238;32;20509;-74
2022/04/09 08:27:00;;;;;;;0.60;0.40;;;;;;;11.23;100.00;97183.81;4379217;32;20086;-74
2022/04/09 08:29:28;;;;;;;0.82;0.47;;;;;;;11.06;100.00;97185.81;4379228;32;20381;-75
2022/04/09 08:31:55;;;;;;;1.02;0.47;;;;;;;10.97;100.00;97180.63;4379235;32;20420;-74
2022/04/09 08:34:24;;;;;;;3.37;0.55;;;;;;;11.03;100.00;97181.72;4379466;32;20121;-74
2022/04/09 08:36:51;;;;;;;1.95;0.65;;;;;;;10.96;100.00;97179.03;4379183;32;20098;-74
2022/04/09 08:39:18;;;;;;;1.48;0.60;;;;;;;10.89;100.00;97177.28;4379516;32;20086;-74
2022/04/09 08:41:46;;;;;;;2.50;0.43;;;;;;;10.77;100.00;97177.72;4379530;32;20103;-74
2022/04/09 08:44:13;;;;;;;1.58;0.50;;;;;;;10.77;99.17;97179.53;4365657;32;20106;-74
2022/04/09 08:46:40;;;;;;;0.55;0.30;;;;;;;10.72;100.00;97187.91;4379143;32;20206;-74
2022/04/09 08:49:08;;;;;;;0.65;0.30;;;;;;;10.64;100.00;97180.94;4378875;32;20161;-74
2022/04/09 08:51:37;;;;;;;0.68;0.43;;;;;;;10.60;100.00;97187.53;4378973;32;20137;-74
2022/04/09 08:54:04;;;;;;;0.82;0.40;;;;;;;10.47;100.00;97193.34;4365694;32;20095;-74
2022/04/09 08:56:37;;;;;;;1.95;0.40;;;;;;;10.55;100.00;97199.50;4378972;32;20121;-74
2022/04/09 08:59:04;;;;;;;1.77;0.30;;;;;;;10.45;100.00;97207.59;4379180;32;20087;-74
2022/04/09 09:01:32;;;;;;;1.12;0.50;;;;;;;10.43;100.00;97213.03;4379031;32;20117;-75
2022/04/09 09:04:01;;;;;;;0.65;0.45;;;;;;;10.54;100.00;97214.41;4378849;32;20554;-74
2022/04/09 09:06:32;;;;;;;2.47;0.88;;;;;;;10.69;100.00;97224.09;4379011;32;20098;-75
2022/04/09 09:09:02;;;;;;;0.88;0.50;;;;;;;10.74;100.00;97227.84;4378963;32;20095;-74
2022/04/09 09:11:30;;;;;;;1.23;0.70;;;;;;;10.40;100.00;97230.84;4378820;32;20095;-74
2022/04/09 09:14:00;;;;;;;1.15;0.80;;;;;;;10.43;100.00;97239.19;4365358;32;20134;-74
2022/04/09 09:16:30;;;;;;;1.60;0.70;;;;;;;10.18;100.00;97232.44;4378844;32;20133;-74
2022/04/09 09:18:58;;;;;;;1.52;1.42;;;;;;;10.33;100.00;97225.50;4378783;32;20082;-74
2022/04/09 09:21:29;;;;;;;1.48;0.75;;;;;;;10.09;100.00;97213.38;4378764;32;20464;-74
2022/04/09 09:24:13;;;;;;;1.23;0.77;;;;;;;9.82;99.60;97222.50;4377956;32;20090;-74
2022/04/09 09:26:40;;;;;;;2.87;0.80;;;;;;;9.81;99.62;97236.53;4378764;32;20161;-74
2022/04/09 09:29:09;;;;;;;0.90;0.80;;;;;;;9.50;100.00;97255.63;4378759;32;20129;-74
2022/04/09 09:31:42;;;;;;;1.02;0.65;;;;;;;9.37;100.00;97264.81;4378874;32;20099;-74
2022/04/09 09:34:16;;;;;;;0.70;0.70;;;;;;;9.23;99.53;97278.53;4378979;32;20095;-73
2022/04/09 09:36:44;;;;;;;;;;;;;;;8.62;100.00;97315.41;4378890;32;20469;-73
2022/04/09 09:39:16;;;;;;;1.83;0.90;;;;;;;8.27;100.00;97324.28;4378514;32;20016;-73
2022/04/09 09:41:51;;;;;;;4.97;1.23;;;;;;;8.06;100.00;97333.31;4378407;32;20082;-73
2022/04/09 09:44:23;;;;;;;6.35;1.33;;;;;;;7.80;100.00;97333.37;4378755;32;20083;-73
2022/04/09 09:46:51;;;;;;;2.92;1.20;;;;;;;7.59;100.00;97355.38;4365055;32;20121;-73
2022/04/09 09:49:20;;;;;;;1.33;1.08;;;;;;;7.49;100.00;97357.25;4378360;32;20170;-73
2022/04/09 09:52:06;;;;;;;1.08;1.00;;;;;;;7.31;100.00;97365.13;4364814;32;20098;-73
2022/04/09 09:54:33;;;;;;;1.60;1.30;;;;;;;7.17;100.00;97378.69;4378413;32;20156;-72
2022/04/09 09:57:01;;;;;;;1.90;0.80;;;;;;;7.18;100.00;97377.72;4378533;32;20161;-73
2022/04/09 09:59:30;;;;;;;1.08;0.98;;;;;;;7.24;100.00;97393.56;4378253;32;20090;-73
2022/04/09 10:01:59;;;;;;;2.42;1.12;;;;;;;7.45;100.00;97405.47;4378260;32;20180;-73
2022/04/09 10:04:26;;;;;;;1.45;1.20;;;;;;;7.22;100.00;97398.12;4365190;32;20169;-73
2022/04/09 10:06:54;;;;;;;0.95;0.85;;;;;;;7.09;100.00;97392.47;4378156;32;20090;-73
2022/04/09 10:09:27;;;;;;;1.05;0.95;;;;;;;7.03;100.00;97396.47;4378291;32;20087;-73
2022/04/09 10:11:54;;;;;;;1.33;1.15;;;;;;;6.80;100.00;97424.72;4378286;32;20113;-73
2022/04/09 10:14:22;;;;;;;2.08;1.00;;;;;;;6.67;100.00;97414.66;4364648;32;20110;-73
2022/04/09 10:16:53;;;;;;;2.10;1.55;;;;;;;6.52;100.00;97406.50;4377982;32;20206;-73
2022/04/09 10:19:23;;;;;;;1.17;1.08;;;;;;;6.53;100.00;97417.75;4378090;32;20094;-73
2022/04/09 10:21:51;;;;;;;1.48;1.23;;;;;;;6.85;100.00;97416.47;4364596;32;20366;-73
2022/04/09 10:24:26;;;;;;;1.85;0.98;;;;;;;6.67;100.00;97406.03;4364210;32;20558;-73
2022/04/09 10:26:55;;;;;;;1.05;0.95;;;;;;;6.63;100.00;97425.50;4377881;32;20186;-73
2022/04/09 10:29:22;;;;;;;1.33;1.15;;;;;;;6.59;100.00;97418.97;4377885;32;20377;-73
2022/04/09 10:31:54;;;;;;;1.23;1.02;;;;;;;6.79;99.68;97415.25;4377912;32;20550;-73
2022/04/09 10:34:21;;;;;;;1.48;1.37;;;;;;;6.77;99.05;97405.94;4378253;32;20170;-73
2022/04/09 10:36:48;;;;;;;1.48;1.30;;;;;;;6.79;100.00;97423.06;4380101;32;20102;-73
2022/04/09 10:39:20;;;;;;;2.03;1.23;;;;;;;6.83;98.84;97419.22;4380109;32;20429;-73
2022/04/09 10:41:49;;;;;;;1.25;1.08;;;;;;;6.89;97.29;97462.06;4380288;32;20067;-73
2022/04/09 10:44:44;;;;;;;3.45;1.92;;;;;;;6.70;96.03;97448.19;4379874;32;20456;-72
2022/04/09 10:47:14;;;;;;;1.40;0.85;;;;;;;6.67;95.80;97456.28;4379886;32;20451;-72
2022/04/09 10:49:42;;;;;;;1.20;1.10;;;;;;;6.67;92.95;97505.72;4380004;32;20148;-72
2022/04/09 10:52:16;;;;;;;1.25;1.10;;;;;;;6.49;90.83;97471.03;4380020;32;20354;-72
2022/04/09 10:55:22;;;;;;;1.37;0.93;;;;;;;6.54;92.15;97485.25;4379898;32;20099;-72
2022/04/09 10:57:52;;;;;;;1.00;0.93;;;;;;;6.61;93.47;97469.87;4366386;32;20098;-72
2022/04/09 11:00:26;;;;;;;1.02;0.75;;;;;;;6.55;89.80;97454.84;4366454;32;20087;-72
2022/04/09 11:03:28;;;;;;;0.80;0.65;;;;;;;6.68;86.90;97480.53;4379896;32;20078;-72
2022/04/09 11:06:43;;;;;;;0.90;0.70;;;;;;;6.50;85.54;97504.72;4347423;33;20104;-72
2022/04/09 11:09:10;;;;;;;1.15;0.77;;;;;;;6.72;86.89;97477.50;4343940;33;20442;-72
2022/04/09 11:11:40;;;;;;;0.90;0.85;;;;;;;6.74;86.00;97491.19;4347638;33;20091;-72
2022/04/09 11:14:08;;;;;;;0.80;0.80;;;;;;;6.56;84.57;97509.34;4347871;33;20343;-72
2022/04/09 11:16:36;;;;;;;1.27;0.77;;;;;;;6.45;87.62;97526.91;4347767;33;20649;-72
2022/04/09 11:19:03;;;;;;;1.10;1.00;;;;;;;6.73;86.43;97535.56;4347681;33;20170;-72
2022/04/09 11:21:31;;;;;;;0.60;0.50;;;;;;;6.60;83.60;97551.53;4347639;33;20106;-72
2022/04/09 11:24:08;;;;;;;1.35;0.80;;;;;;;6.69;83.71;97574.09;4335544;33;20639;-72
2022/04/09 11:26:35;;;;;;;2.25;0.82;;;;;;;6.91;85.03;97564.28;4347762;33;20095;-71
2022/04/09 11:29:09;;;;;;;0.95;0.68;;;;;;;6.75;83.90;97554.47;4347568;33;20114;-71
2022/04/09 11:31:46;;;;;;;;;;;;;;;6.80;82.98;97567.03;4347992;33;20141;-71
2022/04/09 11:34:14;;;;;;;0.98;0.93;;;;;;;7.22;84.66;97597.84;4347704;33;20005;-71
2022/04/09 11:36:41;;;;;;;1.95;1.00;;;;;;;7.39;81.83;97570.22;4347634;33;20434;-71
2022/04/09 11:39:08;;;;;;;1.20;1.10;;;;;;;7.44;79.12;97567.97;4335484;33;20108;-71
2022/04/09 11:41:36;;;;;;;1.10;1.00;;;;;;;7.33;78.07;97561.19;4364162;32;20129;-71